sensor_id;sensor_type;location;lat;lon;timestamp;temperature;humidity
1107;DHT22;540;49.448;8.612;2023-06-14T00:02:01;21.50;37.70
1107;DHT22;540;49.448;8.612;2023-06-14T00:04:31;21.50;37.70
1107;DHT22;540;49.448;8.612;2023-06-14T00:07:00;21.60;37.70
1107;DHT22;540;49.448;8.612;2023-06-14T00:09:27;21.60;37.60
1107;DHT22;540;49.448;8.612;2023-06-14T00:11:55;21.60;37.60
1107;DHT22;540;49.448;8.612;2023-06-14T00:14:23;21.40;37.80
1107;DHT22;540;49.448;8.612;2023-06-14T00:16:51;21.50;38.10
1107;DHT22;540;49.448;8.612;2023-06-14T00:19:21;21.10;38.00
1107;DHT22;540;49.448;8.612;2023-06-14T00:21:50;21.10;38.10
1107;DHT22;540;49.448;8.612;2023-06-14T00:24:19;21.20;38.10
1107;DHT22;540;49.448;8.612;2023-06-14T00:26:47;21.40;38.50
1107;DHT22;540;49.448;8.612;2023-06-14T00:29:15;21.30;38.30
1107;DHT22;540;49.448;8.612;2023-06-14T00:31:43;21.40;38.30
1107;DHT22;540;49.448;8.612;2023-06-14T00:34:11;21.50;38.30
1107;DHT22;540;49.448;8.612;2023-06-14T00:36:39;21.40;38.30
1107;DHT22;540;49.448;8.612;2023-06-14T00:39:08;21.50;38.50
1107;DHT22;540;49.448;8.612;2023-06-14T00:41:36;21.80;38.60
1107;DHT22;540;49.448;8.612;2023-06-14T00:44:04;21.40;38.40
1107;DHT22;540;49.448;8.612;2023-06-14T00:46:32;21.40;38.30
1107;DHT22;540;49.448;8.612;2023-06-14T00:49:01;21.50;38.30
1107;DHT22;540;49.448;8.612;2023-06-14T00:51:29;21.40;38.20
1107;DHT22;540;49.448;8.612;2023-06-14T00:53:57;21.00;37.80
1107;DHT22;540;49.448;8.612;2023-06-14T00:56:26;21.40;38.30
1107;DHT22;540;49.448;8.612;2023-06-14T00:58:55;21.40;38.30
1107;DHT22;540;49.448;8.612;2023-06-14T01:01:23;21.40;38.20
1107;DHT22;540;49.448;8.612;2023-06-14T01:03:51;21.20;38.10
1107;DHT22;540;49.448;8.612;2023-06-14T01:06:27;21.40;38.40
1107;DHT22;540;49.448;8.612;2023-06-14T01:09:03;21.40;38.70
1107;DHT22;540;49.448;8.612;2023-06-14T01:11:44;21.30;39.00
1107;DHT22;540;49.448;8.612;2023-06-14T01:14:16;21.30;39.40
1107;DHT22;540;49.448;8.612;2023-06-14T01:16:44;21.00;39.60
1107;DHT22;540;49.448;8.612;2023-06-14T01:19:14;20.60;39.70
1107;DHT22;540;49.448;8.612;2023-06-14T01:21:43;20.80;40.40
1107;DHT22;540;49.448;8.612;2023-06-14T01:24:12;20.80;40.30
1107;DHT22;540;49.448;8.612;2023-06-14T01:26:41;21.00;40.70
1107;DHT22;540;49.448;8.612;2023-06-14T01:29:13;20.70;40.50
1107;DHT22;540;49.448;8.612;2023-06-14T01:31:44;20.60;40.50
1107;DHT22;540;49.448;8.612;2023-06-14T01:34:13;20.70;40.80
1107;DHT22;540;49.448;8.612;2023-06-14T01:36:42;20.50;40.70
1107;DHT22;540;49.448;8.612;2023-06-14T01:39:14;20.60;40.80
1107;DHT22;540;49.448;8.612;2023-06-14T01:41:43;20.70;40.80
1107;DHT22;540;49.448;8.612;2023-06-14T01:44:14;20.50;40.50
1107;DHT22;540;49.448;8.612;2023-06-14T01:46:43;20.30;40.20
1107;DHT22;540;49.448;8.612;2023-06-14T01:49:11;20.30;40.30
1107;DHT22;540;49.448;8.612;2023-06-14T01:51:39;20.60;40.50
1107;DHT22;540;49.448;8.612;2023-06-14T01:54:07;20.80;40.90
1107;DHT22;540;49.448;8.612;2023-06-14T01:56:36;20.40;40.50
1107;DHT22;540;49.448;8.612;2023-06-14T01:59:04;20.50;40.50
1107;DHT22;540;49.448;8.612;2023-06-14T02:01:32;20.20;40.40
1107;DHT22;540;49.448;8.612;2023-06-14T02:04:01;20.30;40.60
1107;DHT22;540;49.448;8.612;2023-06-14T02:06:29;20.70;40.80
1107;DHT22;540;49.448;8.612;2023-06-14T02:08:57;20.50;39.20
1107;DHT22;540;49.448;8.612;2023-06-14T02:11:24;20.60;38.90
1107;DHT22;540;49.448;8.612;2023-06-14T02:13:55;20.70;39.40
1107;DHT22;540;49.448;8.612;2023-06-14T02:16:22;20.70;39.60
1107;DHT22;540;49.448;8.612;2023-06-14T02:18:51;20.70;39.30
1107;DHT22;540;49.448;8.612;2023-06-14T02:21:19;20.90;39.40
1107;DHT22;540;49.448;8.612;2023-06-14T02:23:47;20.80;39.70
1107;DHT22;540;49.448;8.612;2023-06-14T02:26:15;20.70;40.30
1107;DHT22;540;49.448;8.612;2023-06-14T02:28:43;20.80;38.80
1107;DHT22;540;49.448;8.612;2023-06-14T02:31:12;20.90;39.00
1107;DHT22;540;49.448;8.612;2023-06-14T02:33:39;21.00;39.10
1107;DHT22;540;49.448;8.612;2023-06-14T02:36:08;20.50;39.10
1107;DHT22;540;49.448;8.612;2023-06-14T02:38:36;20.50;39.30
1107;DHT22;540;49.448;8.612;2023-06-14T02:41:03;20.80;39.80
1107;DHT22;540;49.448;8.612;2023-06-14T02:43:32;20.60;39.80
1107;DHT22;540;49.448;8.612;2023-06-14T02:46:00;20.80;40.10
1107;DHT22;540;49.448;8.612;2023-06-14T02:48:29;20.80;40.40
1107;DHT22;540;49.448;8.612;2023-06-14T02:50:57;20.50;40.30
1107;DHT22;540;49.448;8.612;2023-06-14T02:53:25;20.40;41.00
1107;DHT22;540;49.448;8.612;2023-06-14T02:55:52;20.40;41.00
1107;DHT22;540;49.448;8.612;2023-06-14T02:58:22;20.40;41.30
1107;DHT22;540;49.448;8.612;2023-06-14T03:00:51;20.30;41.40
1107;DHT22;540;49.448;8.612;2023-06-14T03:03:20;19.80;41.00
1107;DHT22;540;49.448;8.612;2023-06-14T03:05:52;19.90;41.30
1107;DHT22;540;49.448;8.612;2023-06-14T03:08:21;20.00;41.70
1107;DHT22;540;49.448;8.612;2023-06-14T03:10:53;19.80;41.80
1107;DHT22;540;49.448;8.612;2023-06-14T03:13:22;19.60;42.10
1107;DHT22;540;49.448;8.612;2023-06-14T03:15:50;19.60;42.30
1107;DHT22;540;49.448;8.612;2023-06-14T03:18:18;19.90;42.50
1107;DHT22;540;49.448;8.612;2023-06-14T03:20:54;19.80;42.40
1107;DHT22;540;49.448;8.612;2023-06-14T03:23:24;19.60;42.50
1107;DHT22;540;49.448;8.612;2023-06-14T03:25:52;19.30;42.40
1107;DHT22;540;49.448;8.612;2023-06-14T03:28:19;19.40;42.60
1107;DHT22;540;49.448;8.612;2023-06-14T03:30:47;19.30;42.80
1107;DHT22;540;49.448;8.612;2023-06-14T03:33:15;19.80;43.30
1107;DHT22;540;49.448;8.612;2023-06-14T03:35:43;19.60;43.10
1107;DHT22;540;49.448;8.612;2023-06-14T03:38:12;19.60;43.10
1107;DHT22;540;49.448;8.612;2023-06-14T03:40:40;19.60;43.10
1107;DHT22;540;49.448;8.612;2023-06-14T03:43:08;19.40;43.30
1107;DHT22;540;49.448;8.612;2023-06-14T03:45:36;19.60;43.80
1107;DHT22;540;49.448;8.612;2023-06-14T03:48:04;19.60;44.00
1107;DHT22;540;49.448;8.612;2023-06-14T03:50:33;19.60;44.40
1107;DHT22;540;49.448;8.612;2023-06-14T03:53:02;19.10;44.30
1107;DHT22;540;49.448;8.612;2023-06-14T03:55:31;19.40;44.80
1107;DHT22;540;49.448;8.612;2023-06-14T03:58:02;19.10;44.90
1107;DHT22;540;49.448;8.612;2023-06-14T04:00:30;19.50;45.30
1107;DHT22;540;49.448;8.612;2023-06-14T04:02:58;18.90;45.00
1107;DHT22;540;49.448;8.612;2023-06-14T04:05:26;19.20;45.70
1107;DHT22;540;49.448;8.612;2023-06-14T04:07:54;19.30;46.20
1107;DHT22;540;49.448;8.612;2023-06-14T04:10:22;19.30;46.30
1107;DHT22;540;49.448;8.612;2023-06-14T04:12:52;19.40;46.40
1107;DHT22;540;49.448;8.612;2023-06-14T04:15:19;18.90;46.30
1107;DHT22;540;49.448;8.612;2023-06-14T04:17:48;19.00;46.70
1107;DHT22;540;49.448;8.612;2023-06-14T04:20:16;19.10;47.30
1107;DHT22;540;49.448;8.612;2023-06-14T04:22:44;19.20;47.10
1107;DHT22;540;49.448;8.612;2023-06-14T04:25:12;18.70;46.30
1107;DHT22;540;49.448;8.612;2023-06-14T04:27:40;19.20;47.30
1107;DHT22;540;49.448;8.612;2023-06-14T04:30:10;19.00;47.60
1107;DHT22;540;49.448;8.612;2023-06-14T04:32:40;19.30;47.30
1107;DHT22;540;49.448;8.612;2023-06-14T04:35:09;19.40;47.00
1107;DHT22;540;49.448;8.612;2023-06-14T04:37:38;19.40;46.10
1107;DHT22;540;49.448;8.612;2023-06-14T04:40:10;19.60;45.90
1107;DHT22;540;49.448;8.612;2023-06-14T04:42:38;19.50;45.50
1107;DHT22;540;49.448;8.612;2023-06-14T04:45:08;19.50;45.20
1107;DHT22;540;49.448;8.612;2023-06-14T04:47:37;19.80;45.40
1107;DHT22;540;49.448;8.612;2023-06-14T04:50:06;19.90;45.80
1107;DHT22;540;49.448;8.612;2023-06-14T04:52:34;19.80;45.70
1107;DHT22;540;49.448;8.612;2023-06-14T04:55:02;19.80;45.70
1107;DHT22;540;49.448;8.612;2023-06-14T04:57:31;19.70;45.60
1107;DHT22;540;49.448;8.612;2023-06-14T04:59:58;19.60;45.60
1107;DHT22;540;49.448;8.612;2023-06-14T05:02:27;19.40;45.50
1107;DHT22;540;49.448;8.612;2023-06-14T05:04:58;19.50;45.80
1107;DHT22;540;49.448;8.612;2023-06-14T05:07:28;19.80;46.60
1107;DHT22;540;49.448;8.612;2023-06-14T05:09:56;19.60;46.40
1107;DHT22;540;49.448;8.612;2023-06-14T05:12:24;19.90;46.90
1107;DHT22;540;49.448;8.612;2023-06-14T05:14:52;20.40;47.20
1107;DHT22;540;49.448;8.612;2023-06-14T05:17:20;20.30;46.40
1107;DHT22;540;49.448;8.612;2023-06-14T05:19:49;22.50;43.80
1107;DHT22;540;49.448;8.612;2023-06-14T05:22:18;24.80;38.80
1107;DHT22;540;49.448;8.612;2023-06-14T05:24:46;26.60;35.30
1107;DHT22;540;49.448;8.612;2023-06-14T05:27:14;27.70;32.50
1107;DHT22;540;49.448;8.612;2023-06-14T05:29:42;28.10;31.50
1107;DHT22;540;49.448;8.612;2023-06-14T05:32:10;28.30;30.00
1107;DHT22;540;49.448;8.612;2023-06-14T05:34:38;28.60;29.90
1107;DHT22;540;49.448;8.612;2023-06-14T05:37:07;29.10;29.60
1107;DHT22;540;49.448;8.612;2023-06-14T05:39:36;29.20;29.00
1107;DHT22;540;49.448;8.612;2023-06-14T05:42:04;29.60;28.60
1107;DHT22;540;49.448;8.612;2023-06-14T05:44:32;29.80;28.30
1107;DHT22;540;49.448;8.612;2023-06-14T05:47:00;30.10;27.60
1107;DHT22;540;49.448;8.612;2023-06-14T05:49:28;30.60;27.10
1107;DHT22;540;49.448;8.612;2023-06-14T05:51:56;30.90;26.60
1107;DHT22;540;49.448;8.612;2023-06-14T05:54:24;31.20;26.30
1107;DHT22;540;49.448;8.612;2023-06-14T05:56:53;31.60;25.90
1107;DHT22;540;49.448;8.612;2023-06-14T05:59:21;31.60;25.70
1107;DHT22;540;49.448;8.612;2023-06-14T06:01:49;30.40;26.70
1107;DHT22;540;49.448;8.612;2023-06-14T06:04:20;30.40;27.30
1107;DHT22;540;49.448;8.612;2023-06-14T06:06:48;30.90;26.50
1107;DHT22;540;49.448;8.612;2023-06-14T06:09:15;31.60;26.20
1107;DHT22;540;49.448;8.612;2023-06-14T06:11:43;31.60;25.40
1107;DHT22;540;49.448;8.612;2023-06-14T06:14:21;31.60;25.40
1107;DHT22;540;49.448;8.612;2023-06-14T06:16:49;31.80;25.10
1107;DHT22;540;49.448;8.612;2023-06-14T06:19:19;32.00;24.70
1107;DHT22;540;49.448;8.612;2023-06-14T06:21:47;31.30;25.10
1107;DHT22;540;49.448;8.612;2023-06-14T06:24:14;31.20;25.90
1107;DHT22;540;49.448;8.612;2023-06-14T06:26:42;31.50;25.90
1107;DHT22;540;49.448;8.612;2023-06-14T06:29:10;31.80;25.40
1107;DHT22;540;49.448;8.612;2023-06-14T06:31:40;32.30;24.70
1107;DHT22;540;49.448;8.612;2023-06-14T06:34:08;32.10;23.80
1107;DHT22;540;49.448;8.612;2023-06-14T06:36:36;30.90;24.60
1107;DHT22;540;49.448;8.612;2023-06-14T06:39:03;31.00;25.50
1107;DHT22;540;49.448;8.612;2023-06-14T06:41:37;31.30;25.60
1107;DHT22;540;49.448;8.612;2023-06-14T06:44:06;31.70;25.20
1107;DHT22;540;49.448;8.612;2023-06-14T06:46:34;31.50;25.10
1107;DHT22;540;49.448;8.612;2023-06-14T06:49:08;31.00;25.20
1107;DHT22;540;49.448;8.612;2023-06-14T06:51:41;30.40;25.90
1107;DHT22;540;49.448;8.612;2023-06-14T06:54:10;30.90;25.40
1107;DHT22;540;49.448;8.612;2023-06-14T06:56:38;31.20;25.10
1107;DHT22;540;49.448;8.612;2023-06-14T06:59:06;31.80;25.10
1107;DHT22;540;49.448;8.612;2023-06-14T07:01:34;32.50;24.60
1107;DHT22;540;49.448;8.612;2023-06-14T07:04:03;33.10;23.80
1107;DHT22;540;49.448;8.612;2023-06-14T07:06:32;33.20;23.00
1107;DHT22;540;49.448;8.612;2023-06-14T07:09:00;33.10;23.60
1107;DHT22;540;49.448;8.612;2023-06-14T07:11:28;32.70;23.70
1107;DHT22;540;49.448;8.612;2023-06-14T07:13:56;33.30;23.60
1107;DHT22;540;49.448;8.612;2023-06-14T07:16:24;33.70;23.20
1107;DHT22;540;49.448;8.612;2023-06-14T07:18:52;34.10;22.30
1107;DHT22;540;49.448;8.612;2023-06-14T07:21:20;34.40;22.20
1107;DHT22;540;49.448;8.612;2023-06-14T07:23:49;34.80;21.80
1107;DHT22;540;49.448;8.612;2023-06-14T07:26:17;35.00;21.90
1107;DHT22;540;49.448;8.612;2023-06-14T07:28:46;34.90;21.50
1107;DHT22;540;49.448;8.612;2023-06-14T07:31:15;35.00;21.50
1107;DHT22;540;49.448;8.612;2023-06-14T07:33:45;35.70;21.40
1107;DHT22;540;49.448;8.612;2023-06-14T07:36:13;36.00;20.30
1107;DHT22;540;49.448;8.612;2023-06-14T07:38:41;35.30;21.00
1107;DHT22;540;49.448;8.612;2023-06-14T07:41:10;34.80;21.20
1107;DHT22;540;49.448;8.612;2023-06-14T07:43:38;35.00;21.50
1107;DHT22;540;49.448;8.612;2023-06-14T07:46:05;35.70;20.70
1107;DHT22;540;49.448;8.612;2023-06-14T07:48:35;35.80;20.40
1107;DHT22;540;49.448;8.612;2023-06-14T07:51:03;35.80;20.30
1107;DHT22;540;49.448;8.612;2023-06-14T07:53:31;36.10;19.80
1107;DHT22;540;49.448;8.612;2023-06-14T07:55:59;35.70;20.30
1107;DHT22;540;49.448;8.612;2023-06-14T07:58:29;35.70;20.40
1107;DHT22;540;49.448;8.612;2023-06-14T08:00:57;35.10;21.00
1107;DHT22;540;49.448;8.612;2023-06-14T08:03:27;34.80;21.50
1107;DHT22;540;49.448;8.612;2023-06-14T08:05:58;34.40;21.50
1107;DHT22;540;49.448;8.612;2023-06-14T08:08:28;34.30;21.70
1107;DHT22;540;49.448;8.612;2023-06-14T08:10:58;34.50;21.80
1107;DHT22;540;49.448;8.612;2023-06-14T08:13:30;35.00;20.70
1107;DHT22;540;49.448;8.612;2023-06-14T08:15:59;34.90;20.70
1107;DHT22;540;49.448;8.612;2023-06-14T08:18:29;34.40;21.10
1107;DHT22;540;49.448;8.612;2023-06-14T08:20:59;35.30;21.00
1107;DHT22;540;49.448;8.612;2023-06-14T08:23:29;35.80;20.60
1107;DHT22;540;49.448;8.612;2023-06-14T08:25:59;36.50;20.20
1107;DHT22;540;49.448;8.612;2023-06-14T08:28:31;36.30;19.70
1107;DHT22;540;49.448;8.612;2023-06-14T08:31:00;36.20;19.80
1107;DHT22;540;49.448;8.612;2023-06-14T08:33:30;36.60;19.90
1107;DHT22;540;49.448;8.612;2023-06-14T08:36:03;36.70;19.70
1107;DHT22;540;49.448;8.612;2023-06-14T08:38:32;36.70;19.30
1107;DHT22;540;49.448;8.612;2023-06-14T08:41:03;36.70;18.80
1107;DHT22;540;49.448;8.612;2023-06-14T08:43:36;36.50;19.00
1107;DHT22;540;49.448;8.612;2023-06-14T08:46:07;36.10;19.10
1107;DHT22;540;49.448;8.612;2023-06-14T08:48:40;36.00;19.20
1107;DHT22;540;49.448;8.612;2023-06-14T08:51:11;36.20;19.80
1107;DHT22;540;49.448;8.612;2023-06-14T08:53:44;36.00;19.20
1107;DHT22;540;49.448;8.612;2023-06-14T08:56:14;35.70;19.90
1107;DHT22;540;49.448;8.612;2023-06-14T08:58:45;35.80;19.90
1107;DHT22;540;49.448;8.612;2023-06-14T09:01:14;35.70;19.70
1107;DHT22;540;49.448;8.612;2023-06-14T09:03:44;35.40;20.30
1107;DHT22;540;49.448;8.612;2023-06-14T09:06:12;35.40;20.30
1107;DHT22;540;49.448;8.612;2023-06-14T09:08:42;35.50;19.70
1107;DHT22;540;49.448;8.612;2023-06-14T09:11:11;35.20;19.50
1107;DHT22;540;49.448;8.612;2023-06-14T09:13:41;34.90;19.90
1107;DHT22;540;49.448;8.612;2023-06-14T09:16:10;35.10;19.70
1107;DHT22;540;49.448;8.612;2023-06-14T09:18:39;34.40;20.20
1107;DHT22;540;49.448;8.612;2023-06-14T09:21:08;34.00;20.40
1107;DHT22;540;49.448;8.612;2023-06-14T09:23:36;33.60;20.90
1107;DHT22;540;49.448;8.612;2023-06-14T09:26:08;33.50;21.10
1107;DHT22;540;49.448;8.612;2023-06-14T09:28:45;34.10;20.30
1107;DHT22;540;49.448;8.612;2023-06-14T09:31:19;34.20;20.50
1107;DHT22;540;49.448;8.612;2023-06-14T09:33:55;34.20;19.20
1107;DHT22;540;49.448;8.612;2023-06-14T09:36:26;34.50;19.00
1107;DHT22;540;49.448;8.612;2023-06-14T09:39:00;34.40;19.70
1107;DHT22;540;49.448;8.612;2023-06-14T09:41:35;34.60;19.60
1107;DHT22;540;49.448;8.612;2023-06-14T09:44:07;34.60;19.60
1107;DHT22;540;49.448;8.612;2023-06-14T09:46:52;34.10;19.90
1107;DHT22;540;49.448;8.612;2023-06-14T09:49:28;33.90;20.80
1107;DHT22;540;49.448;8.612;2023-06-14T09:52:04;34.30;20.50
1107;DHT22;540;49.448;8.612;2023-06-14T09:54:35;34.70;20.20
1107;DHT22;540;49.448;8.612;2023-06-14T09:57:10;34.70;20.20
1107;DHT22;540;49.448;8.612;2023-06-14T09:59:41;34.60;20.00
1107;DHT22;540;49.448;8.612;2023-06-14T10:02:17;34.40;20.40
1107;DHT22;540;49.448;8.612;2023-06-14T10:04:50;34.60;20.20
1107;DHT22;540;49.448;8.612;2023-06-14T10:07:21;34.50;20.30
1107;DHT22;540;49.448;8.612;2023-06-14T10:09:50;34.00;20.70
1107;DHT22;540;49.448;8.612;2023-06-14T10:12:18;33.80;21.00
1107;DHT22;540;49.448;8.612;2023-06-14T10:14:49;33.30;21.50
1107;DHT22;540;49.448;8.612;2023-06-14T10:17:30;33.10;21.40
1107;DHT22;540;49.448;8.612;2023-06-14T10:20:11;33.50;21.40
1107;DHT22;540;49.448;8.612;2023-06-14T10:22:47;33.70;20.70
1107;DHT22;540;49.448;8.612;2023-06-14T10:25:26;33.20;20.70
1107;DHT22;540;49.448;8.612;2023-06-14T10:28:03;33.20;21.80
1107;DHT22;540;49.448;8.612;2023-06-14T10:30:32;33.30;21.80
1107;DHT22;540;49.448;8.612;2023-06-14T10:33:07;33.40;21.90
1107;DHT22;540;49.448;8.612;2023-06-14T10:35:37;33.70;21.70
1107;DHT22;540;49.448;8.612;2023-06-14T10:38:08;33.30;22.40
1107;DHT22;540;49.448;8.612;2023-06-14T10:40:36;32.70;23.00
1107;DHT22;540;49.448;8.612;2023-06-14T10:43:23;32.30;23.50
1107;DHT22;540;49.448;8.612;2023-06-14T10:46:17;31.80;23.50
1107;DHT22;540;49.448;8.612;2023-06-14T10:48:46;31.70;23.80
1107;DHT22;540;49.448;8.612;2023-06-14T10:51:18;32.10;23.50
1107;DHT22;540;49.448;8.612;2023-06-14T10:53:47;32.30;23.50
1107;DHT22;540;49.448;8.612;2023-06-14T10:56:28;32.70;23.20
1107;DHT22;540;49.448;8.612;2023-06-14T10:58:58;32.30;23.30
1107;DHT22;540;49.448;8.612;2023-06-14T11:01:35;32.30;23.40
1107;DHT22;540;49.448;8.612;2023-06-14T11:04:08;32.00;23.70
1107;DHT22;540;49.448;8.612;2023-06-14T11:06:45;31.80;23.80
1107;DHT22;540;49.448;8.612;2023-06-14T11:09:39;31.30;23.80
1107;DHT22;540;49.448;8.612;2023-06-14T11:12:12;31.40;24.10
1107;DHT22;540;49.448;8.612;2023-06-14T11:14:40;31.60;24.10
1107;DHT22;540;49.448;8.612;2023-06-14T11:17:08;31.50;23.60
1107;DHT22;540;49.448;8.612;2023-06-14T11:19:38;31.60;23.30
1107;DHT22;540;49.448;8.612;2023-06-14T11:22:05;31.80;23.70
1107;DHT22;540;49.448;8.612;2023-06-14T11:24:34;32.10;23.90
1107;DHT22;540;49.448;8.612;2023-06-14T11:27:02;31.80;23.70
1107;DHT22;540;49.448;8.612;2023-06-14T11:29:30;31.90;24.30
1107;DHT22;540;49.448;8.612;2023-06-14T11:31:58;32.10;23.90
1107;DHT22;540;49.448;8.612;2023-06-14T11:34:26;32.10;23.90
1107;DHT22;540;49.448;8.612;2023-06-14T11:36:55;32.20;23.80
1107;DHT22;540;49.448;8.612;2023-06-14T11:39:24;32.00;23.50
1107;DHT22;540;49.448;8.612;2023-06-14T11:41:53;31.90;23.60
1107;DHT22;540;49.448;8.612;2023-06-14T11:44:22;32.00;23.70
1107;DHT22;540;49.448;8.612;2023-06-14T11:46:50;32.20;23.40
1107;DHT22;540;49.448;8.612;2023-06-14T11:49:18;32.30;23.50
1107;DHT22;540;49.448;8.612;2023-06-14T11:51:46;31.90;24.20
1107;DHT22;540;49.448;8.612;2023-06-14T11:54:15;31.70;24.30
1107;DHT22;540;49.448;8.612;2023-06-14T11:56:43;31.10;24.70
1107;DHT22;540;49.448;8.612;2023-06-14T11:59:13;31.20;24.70
1107;DHT22;540;49.448;8.612;2023-06-14T12:01:43;30.90;24.70
1107;DHT22;540;49.448;8.612;2023-06-14T12:04:12;30.50;25.30
1107;DHT22;540;49.448;8.612;2023-06-14T12:06:39;30.10;25.80
1107;DHT22;540;49.448;8.612;2023-06-14T12:09:08;29.90;25.80
1107;DHT22;540;49.448;8.612;2023-06-14T12:11:44;29.90;26.00
1107;DHT22;540;49.448;8.612;2023-06-14T12:14:12;29.60;26.30
1107;DHT22;540;49.448;8.612;2023-06-14T12:16:40;29.80;26.50
1107;DHT22;540;49.448;8.612;2023-06-14T12:19:12;30.20;26.00
1107;DHT22;540;49.448;8.612;2023-06-14T12:21:41;30.50;25.20
1107;DHT22;540;49.448;8.612;2023-06-14T12:24:09;30.80;25.10
1107;DHT22;540;49.448;8.612;2023-06-14T12:26:39;30.90;24.90
1107;DHT22;540;49.448;8.612;2023-06-14T12:29:09;30.40;25.20
1107;DHT22;540;49.448;8.612;2023-06-14T12:31:39;30.40;26.10
1107;DHT22;540;49.448;8.612;2023-06-14T12:34:07;30.00;25.70
1107;DHT22;540;49.448;8.612;2023-06-14T12:36:35;29.70;26.00
1107;DHT22;540;49.448;8.612;2023-06-14T12:39:08;29.70;26.50
1107;DHT22;540;49.448;8.612;2023-06-14T12:41:36;29.60;26.60
1107;DHT22;540;49.448;8.612;2023-06-14T12:44:04;29.70;26.30
1107;DHT22;540;49.448;8.612;2023-06-14T12:46:34;29.70;26.30
1107;DHT22;540;49.448;8.612;2023-06-14T12:49:03;29.60;26.10
1107;DHT22;540;49.448;8.612;2023-06-14T12:51:32;29.40;26.00
1107;DHT22;540;49.448;8.612;2023-06-14T12:53:59;29.60;26.50
1107;DHT22;540;49.448;8.612;2023-06-14T12:56:27;29.50;26.20
1107;DHT22;540;49.448;8.612;2023-06-14T12:58:55;29.60;26.40
1107;DHT22;540;49.448;8.612;2023-06-14T13:01:23;29.50;25.90
1107;DHT22;540;49.448;8.612;2023-06-14T13:03:52;29.40;26.00
1107;DHT22;540;49.448;8.612;2023-06-14T13:06:21;29.20;26.60
1107;DHT22;540;49.448;8.612;2023-06-14T13:08:51;29.00;26.50
1107;DHT22;540;49.448;8.612;2023-06-14T13:11:21;29.20;26.50
1107;DHT22;540;49.448;8.612;2023-06-14T13:13:49;29.30;26.60
1107;DHT22;540;49.448;8.612;2023-06-14T13:16:17;29.30;27.10
1107;DHT22;540;49.448;8.612;2023-06-14T13:18:44;29.20;27.00
1107;DHT22;540;49.448;8.612;2023-06-14T13:21:14;29.00;27.20
1107;DHT22;540;49.448;8.612;2023-06-14T13:23:41;28.90;26.90
1107;DHT22;540;49.448;8.612;2023-06-14T13:26:09;28.60;27.60
1107;DHT22;540;49.448;8.612;2023-06-14T13:28:38;28.50;27.80
1107;DHT22;540;49.448;8.612;2023-06-14T13:31:06;28.70;27.60
1107;DHT22;540;49.448;8.612;2023-06-14T13:33:34;28.70;27.60
1107;DHT22;540;49.448;8.612;2023-06-14T13:36:02;28.60;28.00
1107;DHT22;540;49.448;8.612;2023-06-14T13:38:31;28.60;28.40
1107;DHT22;540;49.448;8.612;2023-06-14T13:40:59;28.30;28.40
1107;DHT22;540;49.448;8.612;2023-06-14T13:43:27;28.70;28.20
1107;DHT22;540;49.448;8.612;2023-06-14T13:45:54;29.40;27.60
1107;DHT22;540;49.448;8.612;2023-06-14T13:48:22;29.90;27.10
1107;DHT22;540;49.448;8.612;2023-06-14T13:51:07;30.30;26.40
1107;DHT22;540;49.448;8.612;2023-06-14T13:53:36;30.60;25.70
1107;DHT22;540;49.448;8.612;2023-06-14T13:56:22;31.00;25.70
1107;DHT22;540;49.448;8.612;2023-06-14T13:58:50;30.80;25.20
1107;DHT22;540;49.448;8.612;2023-06-14T14:01:19;30.20;25.80
1107;DHT22;540;49.448;8.612;2023-06-14T14:04:05;29.80;27.20
1107;DHT22;540;49.448;8.612;2023-06-14T14:06:50;29.40;28.10
1107;DHT22;540;49.448;8.612;2023-06-14T14:09:37;29.00;28.50
1107;DHT22;540;49.448;8.612;2023-06-14T14:12:23;28.60;28.50
1107;DHT22;540;49.448;8.612;2023-06-14T14:15:09;28.30;28.70
1107;DHT22;540;49.448;8.612;2023-06-14T14:17:57;28.20;28.70
1107;DHT22;540;49.448;8.612;2023-06-14T14:20:42;28.30;28.90
1107;DHT22;540;49.448;8.612;2023-06-14T14:23:10;28.10;29.00
1107;DHT22;540;49.448;8.612;2023-06-14T14:25:39;28.10;29.10
1107;DHT22;540;49.448;8.612;2023-06-14T14:28:07;28.10;28.90
1107;DHT22;540;49.448;8.612;2023-06-14T14:30:34;28.20;29.00
1107;DHT22;540;49.448;8.612;2023-06-14T14:33:06;28.30;29.10
1107;DHT22;540;49.448;8.612;2023-06-14T14:35:34;28.30;29.10
1107;DHT22;540;49.448;8.612;2023-06-14T14:38:02;28.20;29.40
1107;DHT22;540;49.448;8.612;2023-06-14T14:40:31;28.20;29.60
1107;DHT22;540;49.448;8.612;2023-06-14T14:43:00;28.00;29.70
1107;DHT22;540;49.448;8.612;2023-06-14T14:45:28;27.60;30.10
1107;DHT22;540;49.448;8.612;2023-06-14T14:47:56;27.40;30.50
1107;DHT22;540;49.448;8.612;2023-06-14T14:50:25;27.30;30.90
1107;DHT22;540;49.448;8.612;2023-06-14T14:52:53;27.10;30.90
1107;DHT22;540;49.448;8.612;2023-06-14T14:55:20;27.10;31.00
1107;DHT22;540;49.448;8.612;2023-06-14T14:57:51;27.00;30.60
1107;DHT22;540;49.448;8.612;2023-06-14T15:00:21;27.00;30.40
1107;DHT22;540;49.448;8.612;2023-06-14T15:02:48;27.10;30.80
1107;DHT22;540;49.448;8.612;2023-06-14T15:05:16;27.20;31.30
1107;DHT22;540;49.448;8.612;2023-06-14T15:07:44;27.10;31.60
1107;DHT22;540;49.448;8.612;2023-06-14T15:10:12;27.10;32.00
1107;DHT22;540;49.448;8.612;2023-06-14T15:12:40;27.20;31.30
1107;DHT22;540;49.448;8.612;2023-06-14T15:15:09;27.30;30.60
1107;DHT22;540;49.448;8.612;2023-06-14T15:17:38;27.40;30.10
1107;DHT22;540;49.448;8.612;2023-06-14T15:20:07;27.20;30.00
1107;DHT22;540;49.448;8.612;2023-06-14T15:22:35;27.50;29.80
1107;DHT22;540;49.448;8.612;2023-06-14T15:25:03;27.60;29.10
1107;DHT22;540;49.448;8.612;2023-06-14T15:27:32;27.70;28.80
1107;DHT22;540;49.448;8.612;2023-06-14T15:30:00;27.90;28.90
1107;DHT22;540;49.448;8.612;2023-06-14T15:32:28;28.40;29.40
1107;DHT22;540;49.448;8.612;2023-06-14T15:34:57;28.70;28.70
1107;DHT22;540;49.448;8.612;2023-06-14T15:37:25;28.70;28.30
1107;DHT22;540;49.448;8.612;2023-06-14T15:39:52;28.40;28.10
1107;DHT22;540;49.448;8.612;2023-06-14T15:42:20;28.40;28.90
1107;DHT22;540;49.448;8.612;2023-06-14T15:44:48;28.30;29.30
1107;DHT22;540;49.448;8.612;2023-06-14T15:47:16;27.90;29.40
1107;DHT22;540;49.448;8.612;2023-06-14T15:49:44;27.70;29.60
1107;DHT22;540;49.448;8.612;2023-06-14T15:52:13;27.40;30.00
1107;DHT22;540;49.448;8.612;2023-06-14T15:54:41;27.10;30.30
1107;DHT22;540;49.448;8.612;2023-06-14T15:57:08;27.10;30.90
1107;DHT22;540;49.448;8.612;2023-06-14T15:59:38;27.00;31.30
1107;DHT22;540;49.448;8.612;2023-06-14T16:02:06;27.00;31.10
1107;DHT22;540;49.448;8.612;2023-06-14T16:04:34;27.00;30.80
1107;DHT22;540;49.448;8.612;2023-06-14T16:07:01;27.20;30.80
1107;DHT22;540;49.448;8.612;2023-06-14T16:09:30;27.20;30.80
1107;DHT22;540;49.448;8.612;2023-06-14T16:11:58;27.10;30.20
1107;DHT22;540;49.448;8.612;2023-06-14T16:14:26;27.00;30.30
1107;DHT22;540;49.448;8.612;2023-06-14T16:16:54;27.00;30.60
1107;DHT22;540;49.448;8.612;2023-06-14T16:19:22;27.10;30.20
1107;DHT22;540;49.448;8.612;2023-06-14T16:21:50;27.10;30.00
1107;DHT22;540;49.448;8.612;2023-06-14T16:24:18;27.30;30.10
1107;DHT22;540;49.448;8.612;2023-06-14T16:26:47;27.20;30.10
1107;DHT22;540;49.448;8.612;2023-06-14T16:29:15;26.90;29.90
1107;DHT22;540;49.448;8.612;2023-06-14T16:31:43;26.80;30.70
1107;DHT22;540;49.448;8.612;2023-06-14T16:34:11;26.80;31.90